createdAt,value
2022-10-22T00:00:56.761Z,100818.53
2022-10-22T00:03:24.527Z,100820.69
2022-10-22T00:05:52.222Z,100824.97
2022-10-22T00:08:20.121Z,100831.59
2022-10-22T00:10:47.988Z,100829.34
2022-10-22T00:13:17.492Z,100834.94
2022-10-22T00:15:45.222Z,100836.63
2022-10-22T00:18:12.926Z,100836.94
2022-10-22T00:20:40.720Z,100847.41
2022-10-22T00:23:08.453Z,100842.66
2022-10-22T00:25:37.102Z,100850.41
2022-10-22T00:28:05.116Z,100846.25
2022-10-22T00:30:34.193Z,100849.31
2022-10-22T00:33:01.901Z,100849.94
2022-10-22T00:35:29.662Z,100852.97
2022-10-22T00:37:57.395Z,100850.53
2022-10-22T00:40:25.111Z,100851.09
2022-10-22T00:42:52.922Z,100849.66
2022-10-22T00:45:23.881Z,100855.16
2022-10-22T00:48:00.546Z,100862.13
2022-10-22T00:50:32.380Z,100858.19
2022-10-22T00:53:02.310Z,100855.50
2022-10-22T00:55:31.322Z,100856.38
2022-10-22T00:57:59.498Z,100854.38
2022-10-22T01:00:27.635Z,100851.81
2022-10-22T01:02:58.853Z,100851.34
2022-10-22T01:05:30.376Z,100854.09
2022-10-22T01:07:58.274Z,100855.13
2022-10-22T01:10:44.170Z,100857.59
2022-10-22T01:13:23.526Z,100862.03
2022-10-22T01:16:00.354Z,100857.28
2022-10-22T01:18:37.962Z,100857.13
2022-10-22T01:21:15.175Z,100854.38
2022-10-22T01:24:09.578Z,100857.59
2022-10-22T01:26:51.449Z,100853.81
2022-10-22T01:29:26.753Z,100848.81
2022-10-22T01:31:57.932Z,100850.03
2022-10-22T01:34:28.224Z,100858.94
2022-10-22T01:36:57.649Z,100857.69
2022-10-22T01:39:28.224Z,100854.94
2022-10-22T01:41:56.579Z,100852.50
2022-10-22T01:44:30.734Z,100854.00
2022-10-22T01:47:08.373Z,100859.50
2022-10-22T01:49:52.042Z,100854.19
2022-10-22T01:52:30.150Z,100859.09
2022-10-22T01:55:08.808Z,100860.81
2022-10-22T01:57:44.909Z,100861.78
2022-10-22T02:00:18.187Z,100856.00
2022-10-22T02:02:53.919Z,100855.94
2022-10-22T02:05:26.233Z,100846.38
2022-10-22T02:07:56.462Z,100852.78
2022-10-22T02:10:25.661Z,100840.25
2022-10-22T02:12:55.719Z,100840.25
2022-10-22T02:15:28.370Z,100839.22
2022-10-22T02:17:58.742Z,100834.66
2022-10-22T02:20:29.289Z,100842.59
2022-10-22T02:22:57.824Z,100832.66
2022-10-22T02:25:29.349Z,100831.47
2022-10-22T02:28:05.174Z,100830.13
2022-10-22T02:30:36.788Z,100838.00
2022-10-22T02:33:09.769Z,100833.63
2022-10-22T02:35:39.838Z,100834.97
2022-10-22T02:38:08.739Z,100835.72
2022-10-22T02:40:36.595Z,100833.44
2022-10-22T02:43:06.311Z,100840.72
2022-10-22T02:45:35.864Z,100840.22
2022-10-22T02:48:03.912Z,100842.69
2022-10-22T02:50:31.718Z,100839.50
2022-10-22T02:52:59.413Z,100842.97
2022-10-22T02:55:27.175Z,100851.84
2022-10-22T02:57:54.916Z,100841.28
2022-10-22T03:00:23.127Z,100850.72
2022-10-22T03:02:52.215Z,100846.75
2022-10-22T03:05:19.968Z,100860.81
2022-10-22T03:07:47.723Z,100860.81
2022-10-22T03:10:15.610Z,100851.38
2022-10-22T03:12:43.300Z,100849.28
2022-10-22T03:15:11.609Z,100848.53
2022-10-22T03:17:39.490Z,100851.44
2022-10-22T03:20:09.870Z,100847.78
2022-10-22T03:22:40.507Z,100856.06
2022-10-22T03:25:12.219Z,100865.91
2022-10-22T03:27:42.276Z,100858.16
2022-10-22T03:30:11.611Z,100858.25
2022-10-22T03:32:39.336Z,100851.38
2022-10-22T03:35:09.166Z,100863.28
2022-10-22T03:37:38.232Z,100861.88
2022-10-22T03:40:08.537Z,100860.44
2022-10-22T03:42:36.554Z,100868.38
2022-10-22T03:45:05.117Z,100858.66
2022-10-22T03:47:32.886Z,100864.44
2022-10-22T03:50:00.598Z,100868.13
2022-10-22T03:52:29.727Z,100869.63
2022-10-22T03:54:57.698Z,100872.19
2022-10-22T03:57:25.470Z,100866.88
2022-10-22T03:59:53.181Z,100871.41
2022-10-22T04:02:21.630Z,100878.41
2022-10-22T04:04:49.370Z,100880.88
2022-10-22T04:07:17.088Z,100878.59
2022-10-22T04:09:46.182Z,100890.19
2022-10-22T04:12:13.893Z,100875.75
2022-10-22T04:14:41.631Z,100882.44
2022-10-22T04:17:09.401Z,100882.28
2022-10-22T04:19:37.185Z,100878.78
2022-10-22T04:22:04.892Z,100887.00
2022-10-22T04:24:33.420Z,100887.00
2022-10-22T04:27:02.467Z,100886.72
2022-10-22T04:29:30.181Z,100891.59
2022-10-22T04:31:57.893Z,100890.75
2022-10-22T04:34:28.584Z,100894.72
2022-10-22T04:36:56.590Z,100891.97
2022-10-22T04:39:24.368Z,100896.22
2022-10-22T04:41:52.098Z,100898.78
2022-10-22T04:44:21.131Z,100900.50
2022-10-22T04:46:48.998Z,100891.81
2022-10-22T04:49:16.761Z,100894.06
2022-10-22T04:51:44.488Z,100889.63
2022-10-22T04:54:12.242Z,100892.38
2022-10-22T04:56:40.913Z,100893.88
2022-10-22T04:59:10.155Z,100896.34
2022-10-22T05:01:42.843Z,100904.56
2022-10-22T05:04:13.473Z,100904.09
2022-10-22T05:06:41.235Z,100901.63
2022-10-22T05:09:13.823Z,100916.16
2022-10-22T05:11:45.503Z,100912.66
2022-10-22T05:14:14.020Z,100908.69
2022-10-22T05:16:43.150Z,100910.19
2022-10-22T05:19:17.860Z,100912.94
2022-10-22T05:21:45.767Z,100907.47
2022-10-22T05:24:14.144Z,100911.16
2022-10-22T05:26:42.122Z,100915.75
2022-10-22T05:29:09.857Z,100908.31
2022-10-22T05:31:38.831Z,100916.88
2022-10-22T05:34:07.954Z,100910.09
2022-10-22T05:36:35.658Z,100914.97
2022-10-22T05:39:03.670Z,100916.97
2022-10-22T05:41:31.869Z,100916.66
2022-10-22T05:44:00.926Z,100924.00
2022-10-22T05:46:30.816Z,100933.44
2022-10-22T05:49:00.107Z,100926.72
2022-10-22T05:51:31.898Z,100926.94
2022-10-22T05:54:01.431Z,100929.06
2022-10-22T05:56:31.824Z,100939.56
2022-10-22T05:59:00.314Z,100931.69
2022-10-22T06:01:30.469Z,100941.75
2022-10-22T06:03:59.572Z,100942.41
2022-10-22T06:06:32.948Z,100943.31
2022-10-22T06:09:03.368Z,100943.78
2022-10-22T06:11:34.266Z,100948.34
2022-10-22T06:14:03.571Z,100955.59
2022-10-22T06:16:31.954Z,100954.56
2022-10-22T06:19:01.785Z,100965.97
2022-10-22T06:21:32.134Z,100967.03
2022-10-22T06:24:01.405Z,100966.53
2022-10-22T06:26:29.814Z,100972.91
2022-10-22T06:28:58.125Z,100965.75
2022-10-22T06:31:27.411Z,100975.47
2022-10-22T06:33:55.445Z,100977.59
2022-10-22T06:36:25.041Z,100988.34
2022-10-22T06:38:55.696Z,100989.44
2022-10-22T06:41:27.148Z,100995.22
2022-10-22T06:43:58.219Z,101000.22
2022-10-22T06:46:26.759Z,100999.47
2022-10-22T06:48:56.433Z,101004.19
2022-10-22T06:51:24.571Z,101008.91
2022-10-22T06:53:52.293Z,101017.13
2022-10-22T06:56:23.023Z,101013.63
2022-10-22T06:58:51.187Z,101019.69
2022-10-22T07:01:21.370Z,101019.34
2022-10-22T07:03:51.509Z,101024.63
2022-10-22T07:06:20.467Z,101028.25
2022-10-22T07:08:48.374Z,101030.06
2022-10-22T07:11:18.247Z,101035.25
2022-10-22T07:13:47.641Z,101031.59
2022-10-22T07:16:16.410Z,101031.53
2022-10-22T07:18:45.077Z,101041.03
2022-10-22T07:21:14.437Z,101036.81
2022-10-22T07:23:42.523Z,101042.13
2022-10-22T07:26:12.786Z,101046.97
2022-10-22T07:28:41.201Z,101048.59
2022-10-22T07:31:12.689Z,101050.50
2022-10-22T07:33:41.162Z,101049.09
2022-10-22T07:36:12.020Z,101063.78
2022-10-22T07:38:39.777Z,101055.06
2022-10-22T07:41:07.565Z,101061.41
2022-10-22T07:43:35.487Z,101064.50
2022-10-22T07:46:03.366Z,101072.75
2022-10-22T07:48:32.465Z,101072.22
2022-10-22T07:51:00.243Z,101073.00
2022-10-22T07:53:28.064Z,101077.28
2022-10-22T07:55:56.738Z,101078.00
2022-10-22T07:58:25.244Z,101081.47
2022-10-22T08:00:56.522Z,101082.25
2022-10-22T08:03:24.481Z,101083.84
2022-10-22T08:05:54.817Z,101094.94
2022-10-22T08:08:25.868Z,101094.94
2022-10-22T08:10:58.577Z,101094.47
2022-10-22T08:13:27.425Z,101094.94
2022-10-22T08:15:57.499Z,101098.44
2022-10-22T08:18:25.661Z,101096.03
2022-10-22T08:20:55.019Z,101111.16
2022-10-22T08:23:26.025Z,101112.13
2022-10-22T08:25:56.880Z,101109.97
2022-10-22T08:28:24.780Z,101115.69
2022-10-22T08:30:52.765Z,101126.19
2022-10-22T08:33:20.784Z,101125.16
2022-10-22T08:35:50.322Z,101121.66
2022-10-22T08:38:20.284Z,101122.63
2022-10-22T08:40:51.158Z,101123.16
2022-10-22T08:43:59.234Z,101132.53
2022-10-22T08:46:40.073Z,101133.00
2022-10-22T08:49:18.408Z,101139.88
2022-10-22T08:51:46.387Z,101138.69
2022-10-22T08:54:27.520Z,101145.50
2022-10-22T08:57:17.325Z,101147.56
2022-10-22T08:59:48.823Z,101150.31
2022-10-22T09:02:29.118Z,101163.25
2022-10-22T09:05:10.036Z,101156.94
2022-10-22T09:07:42.922Z,101156.94
2022-10-22T09:10:12.881Z,101161.19
2022-10-22T09:12:40.786Z,101168.22
2022-10-22T09:15:14.294Z,101169.22
2022-10-22T09:17:54.168Z,101166.63
2022-10-22T09:20:29.745Z,101174.22
2022-10-22T09:23:06.221Z,101182.13
2022-10-22T09:25:37.887Z,101178.22
2022-10-22T09:28:05.955Z,101182.16
2022-10-22T09:30:37.875Z,101180.91
2022-10-22T09:33:14.814Z,101184.34
2022-10-22T09:35:47.078Z,101191.31
2022-10-22T09:38:17.722Z,101194.06
2022-10-22T09:40:49.788Z,101192.91
2022-10-22T09:43:18.134Z,101188.13
2022-10-22T09:45:47.276Z,101197.16
2022-10-22T09:48:26.401Z,101193.31
2022-10-22T09:51:00.232Z,101201.84
2022-10-22T09:53:31.585Z,101209.97
2022-10-22T09:56:02.628Z,101205.22
2022-10-22T09:58:30.191Z,101202.69
2022-10-22T10:01:00.309Z,101212.50
2022-10-22T10:03:29.781Z,101215.25
2022-10-22T10:06:03.273Z,101222.22
2022-10-22T10:08:34.411Z,101230.72
2022-10-22T10:11:11.869Z,101226.72
2022-10-22T10:13:48.459Z,101232.75
2022-10-22T10:16:32.906Z,101234.31
2022-10-22T10:19:14.773Z,101233.97
2022-10-22T10:21:50.449Z,101233.25
2022-10-22T10:24:23.498Z,101231.22
2022-10-22T10:26:59.516Z,101245.53
2022-10-22T10:32:28.834Z,101263.34
2022-10-22T10:35:04.723Z,101255.81
2022-10-22T10:37:41.709Z,101250.56
2022-10-22T10:40:24.020Z,101256.28
2022-10-22T10:43:01.135Z,101266.34
2022-10-22T10:45:38.082Z,101265.81
2022-10-22T10:48:13.715Z,101276.63
2022-10-22T10:50:52.193Z,101263.53
2022-10-22T10:53:35.621Z,101268.06
2022-10-22T10:56:15.732Z,101270.28
2022-10-22T10:58:53.606Z,101271.84
2022-10-22T11:01:28.642Z,101274.13
2022-10-22T11:04:18.766Z,101277.94
2022-10-22T11:06:47.628Z,101278.44
2022-10-22T11:09:26.785Z,101282.25
2022-10-22T11:11:59.250Z,101279.47
2022-10-22T11:14:33.628Z,101279.72
2022-10-22T11:17:07.149Z,101278.72
2022-10-22T11:19:50.654Z,101281.97
2022-10-22T11:22:27.029Z,101284.25
2022-10-22T11:25:01.124Z,101292.28
2022-10-22T11:27:37.103Z,101302.34
2022-10-22T11:30:12.903Z,101296.81
2022-10-22T11:32:42.879Z,101291.47
2022-10-22T11:35:17.092Z,101302.78
2022-10-22T11:37:47.827Z,101294.25
2022-10-22T11:40:19.770Z,101296.22
2022-10-22T11:42:51.057Z,101297.22
2022-10-22T11:45:31.641Z,101290.84
2022-10-22T11:48:05.895Z,101303.41
2022-10-22T11:50:48.075Z,101299.72
2022-10-22T11:53:21.185Z,101305.25
2022-10-22T11:55:51.519Z,101304.56
2022-10-22T11:58:43.741Z,101301.31
2022-10-22T12:01:28.346Z,101305.31
2022-10-22T12:04:18.852Z,101296.69
2022-10-22T12:07:01.343Z,101301.38
2022-10-22T12:09:32.764Z,101301.44
2022-10-22T12:12:13.241Z,101311.09
2022-10-22T12:14:53.592Z,101305.41
2022-10-22T12:17:23.609Z,101306.16
2022-10-22T12:20:02.071Z,101309.44
2022-10-22T12:22:32.671Z,101304.47
2022-10-22T12:25:03.127Z,101306.03
2022-10-22T12:27:36.196Z,101318.16
2022-10-22T12:30:18.877Z,101311.31
2022-10-22T12:32:47.940Z,101311.00
2022-10-22T12:35:18.855Z,101312.56
2022-10-22T12:37:46.656Z,101314.31
2022-10-22T12:40:20.761Z,101311.50
2022-10-22T12:42:50.982Z,101318.38
2022-10-22T12:45:19.626Z,101306.81
2022-10-22T12:47:49.374Z,101315.22
2022-10-22T12:50:20.130Z,101308.22
2022-10-22T12:52:48.422Z,101314.09
2022-10-22T12:55:17.775Z,101305.22
2022-10-22T12:57:48.310Z,101310.53
2022-10-22T13:00:26.125Z,101311.41
2022-10-22T13:02:58.453Z,101304.22
2022-10-22T13:05:28.420Z,101302.03
2022-10-22T13:08:04.780Z,101317.38
2022-10-22T13:10:35.038Z,101307.66
2022-10-22T13:13:06.705Z,101306.06
2022-10-22T13:15:38.495Z,101308.63
2022-10-22T13:18:17.000Z,101311.16
2022-10-22T13:20:53.376Z,101303.81
2022-10-22T13:23:23.878Z,101303.19
2022-10-22T13:26:00.125Z,101302.78
2022-10-22T13:28:29.531Z,101311.22
2022-10-22T13:30:59.626Z,101302.75
2022-10-22T13:33:34.618Z,101306.94
2022-10-22T13:38:30.888Z,101309.69
2022-10-22T13:40:59.260Z,101319.22
2022-10-22T13:43:27.317Z,101319.88
2022-10-22T13:45:58.419Z,101326.41
2022-10-22T13:48:29.993Z,101329.50
2022-10-22T13:50:57.766Z,101336.41
2022-10-22T13:53:27.710Z,101328.63
2022-10-22T13:55:55.548Z,101327.41
2022-10-22T13:58:25.284Z,101330.34
2022-10-22T14:00:55.722Z,101331.13
2022-10-22T14:03:27.521Z,101327.13
2022-10-22T14:05:57.087Z,101328.47
2022-10-22T14:08:26.425Z,101326.09
2022-10-22T14:10:54.445Z,101330.97
2022-10-22T14:13:22.653Z,101336.53
2022-10-22T14:15:52.500Z,101322.56
2022-10-22T14:18:25.526Z,101327.41
2022-10-22T14:20:55.069Z,101328.06
2022-10-22T14:23:26.531Z,101323.56
2022-10-22T14:25:54.530Z,101326.75
2022-10-22T14:28:22.342Z,101324.53
2022-10-22T14:30:50.932Z,101336.09
2022-10-22T14:33:28.763Z,101329.09
2022-10-22T14:35:59.836Z,101328.91
2022-10-22T14:38:29.228Z,101333.41
2022-10-22T14:40:58.066Z,101326.16
2022-10-22T14:43:28.719Z,101347.41
2022-10-22T14:45:56.855Z,101348.28
2022-10-22T14:48:24.761Z,101353.38
2022-10-22T14:50:52.679Z,101356.28
2022-10-22T14:53:20.576Z,101351.28
2022-10-22T14:55:51.490Z,101354.53
2022-10-22T14:58:19.051Z,101362.69
2022-10-22T15:00:46.812Z,101364.44
2022-10-22T15:03:14.677Z,101364.72
2022-10-22T15:05:44.323Z,101367.97
2022-10-22T15:08:13.373Z,101366.94
2022-10-22T15:10:41.481Z,101369.50
2022-10-22T15:13:10.626Z,101373.78
2022-10-22T15:15:40.965Z,101362.66
2022-10-22T15:18:08.943Z,101367.72
2022-10-22T15:20:36.668Z,101371.53
2022-10-22T15:23:04.588Z,101374.53
2022-10-22T15:25:32.341Z,101377.06
2022-10-22T15:28:02.014Z,101377.06
2022-10-22T15:30:33.858Z,101375.78
2022-10-22T15:33:02.811Z,101379.06
2022-10-22T15:35:30.575Z,101377.50
2022-10-22T15:37:58.313Z,101375.50
2022-10-22T15:40:26.052Z,101383.56
2022-10-22T15:42:53.821Z,101377.00
2022-10-22T15:45:22.633Z,101380.53
2022-10-22T15:47:51.693Z,101386.81
2022-10-22T15:50:19.444Z,101397.63
2022-10-22T15:52:47.179Z,101387.28
2022-10-22T15:55:15.411Z,101389.25
2022-10-22T15:57:43.399Z,101387.22
2022-10-22T16:00:12.748Z,101383.16
2022-10-22T16:02:40.541Z,101380.13
2022-10-22T16:05:10.877Z,101384.41
2022-10-22T16:07:38.991Z,101385.59
2022-10-22T16:10:08.052Z,101386.09
2022-10-22T16:12:36.726Z,101386.31
2022-10-22T16:15:04.998Z,101381.38
2022-10-22T16:17:32.718Z,101384.59
2022-10-22T16:20:00.537Z,101391.34
2022-10-22T16:22:29.682Z,101398.03
2022-10-22T16:24:57.422Z,101385.66
2022-10-22T16:27:25.160Z,101390.25
2022-10-22T16:29:52.982Z,101399.19
2022-10-22T16:32:20.749Z,101388.28
2022-10-22T16:34:48.462Z,101397.19
2022-10-22T16:37:16.213Z,101395.31
2022-10-22T16:39:45.265Z,101394.19
2022-10-22T16:42:13.007Z,101402.72
2022-10-22T16:44:40.708Z,101398.38
2022-10-22T16:47:08.501Z,101393.34
2022-10-22T16:49:36.180Z,101406.59
2022-10-22T16:52:04.040Z,101405.94
2022-10-22T16:54:31.901Z,101411.44
2022-10-22T16:57:01.026Z,101407.03
2022-10-22T16:59:28.809Z,101406.09
2022-10-22T17:01:57.396Z,101399.69
2022-10-22T17:04:25.153Z,101401.09
2022-10-22T17:06:52.869Z,101400.75
2022-10-22T17:09:20.804Z,101406.72
2022-10-22T17:11:48.658Z,101408.41
2022-10-22T17:14:17.777Z,101410.78
2022-10-22T17:16:48.801Z,101408.78
2022-10-22T17:19:16.654Z,101407.06
2022-10-22T17:21:44.457Z,101419.47
2022-10-22T17:24:12.201Z,101414.44
2022-10-22T17:26:39.942Z,101416.44
2022-10-22T17:29:07.926Z,101418.63
2022-10-22T17:31:37.969Z,101429.63
2022-10-22T17:34:06.995Z,101435.13
2022-10-22T17:36:36.165Z,101438.84
2022-10-22T17:39:06.852Z,101437.00
2022-10-22T17:41:36.758Z,101442.19
2022-10-22T17:44:06.951Z,101437.63
2022-10-22T17:46:34.701Z,101439.72
2022-10-22T17:49:07.509Z,101441.66
2022-10-22T17:51:35.410Z,101439.22
2022-10-22T17:54:05.969Z,101434.59
2022-10-22T17:56:37.012Z,101441.78
2022-10-22T17:59:04.773Z,101441.69
2022-10-22T18:01:35.644Z,101432.97
2022-10-22T18:04:06.531Z,101429.66
2022-10-22T18:06:35.580Z,101438.63
2022-10-22T18:09:05.733Z,101438.94
2022-10-22T18:11:36.386Z,101435.94
2022-10-22T18:14:04.985Z,101442.72
2022-10-22T18:16:32.815Z,101445.13
2022-10-22T18:19:01.152Z,101443.41
2022-10-22T18:21:32.777Z,101457.75
2022-10-22T18:24:00.555Z,101450.84
2022-10-22T18:26:28.506Z,101447.16
2022-10-22T18:28:56.302Z,101450.84
2022-10-22T18:31:26.012Z,101443.84
2022-10-22T18:36:28.076Z,101442.00
2022-10-22T18:38:59.127Z,101450.22
2022-10-22T18:41:27.255Z,101444.53
2022-10-22T18:43:57.128Z,101446.06
2022-10-22T18:46:25.203Z,101451.78
2022-10-22T18:48:53.925Z,101457.56
2022-10-22T18:51:22.054Z,101466.84
2022-10-22T18:54:04.555Z,101466.84
2022-10-22T18:56:41.493Z,101462.31
2022-10-22T18:59:16.106Z,101464.84
2022-10-22T19:01:43.898Z,101461.91
2022-10-22T19:04:12.714Z,101457.41
2022-10-22T19:06:45.065Z,101456.97
2022-10-22T19:09:13.700Z,101450.00
2022-10-22T20:57:07.037Z,101445.06
2022-10-22T20:59:35.298Z,101452.63
2022-10-22T21:02:04.882Z,101447.91
2022-10-22T21:04:32.637Z,101449.75
2022-10-22T21:07:00.393Z,101445.81
2022-10-22T21:09:28.181Z,101451.44
2022-10-22T21:11:56.906Z,101455.25
2022-10-22T21:14:26.069Z,101455.47
2022-10-22T21:16:53.779Z,101449.72
2022-10-22T21:19:22.482Z,101444.38
2022-10-22T21:21:50.444Z,101446.22
2022-10-22T21:24:18.376Z,101448.19
2022-10-22T21:26:46.150Z,101452.19
2022-10-22T21:29:14.404Z,101455.06
2022-10-22T21:31:43.470Z,101457.66
2022-10-22T21:34:12.942Z,101462.97
2022-10-22T21:36:40.771Z,101456.63
2022-10-22T21:39:08.555Z,101452.22
2022-10-22T21:41:37.746Z,101449.16
2022-10-22T21:44:05.930Z,101455.06
2022-10-22T21:46:33.693Z,101458.13
2022-10-22T21:49:04.487Z,101453.25
2022-10-22T21:51:35.074Z,101452.63
2022-10-22T21:54:02.845Z,101455.25
2022-10-22T21:56:33.120Z,101464.06
2022-10-22T21:59:00.933Z,101465.13
2022-10-22T22:01:29.267Z,101452.66
2022-10-22T22:03:57.117Z,101457.06
2022-10-22T22:06:30.690Z,101461.28
2022-10-22T22:09:00.793Z,101463.13
2022-10-22T22:11:29.690Z,101459.59
2022-10-22T22:13:58.696Z,101456.97
2022-10-22T22:16:29.249Z,101455.31
2022-10-22T22:18:57.957Z,101456.53
2022-10-22T22:21:28.027Z,101448.00
2022-10-22T22:23:55.811Z,101444.06
2022-10-22T22:26:28.709Z,101450.31
2022-10-22T22:28:58.243Z,101440.25
2022-10-22T22:31:28.529Z,101434.66
2022-10-22T22:33:59.986Z,101433.41
2022-10-22T22:36:29.251Z,101431.75
2022-10-22T22:38:57.658Z,101430.06
2022-10-22T22:41:25.544Z,101428.88
2022-10-22T22:43:53.304Z,101424.47
2022-10-22T22:46:21.008Z,101426.75
2022-10-22T22:48:49.020Z,101416.56
2022-10-22T22:51:17.309Z,101429.50
2022-10-22T22:53:46.657Z,101429.50
2022-10-22T22:56:16.856Z,101415.03
2022-10-22T22:58:44.630Z,101413.53
2022-10-22T23:01:15.674Z,101415.63
2022-10-22T23:03:43.981Z,101421.41
2022-10-22T23:06:12.549Z,101420.34
2022-10-22T23:08:40.654Z,101418.34
2022-10-22T23:11:11.893Z,101424.13
2022-10-22T23:13:40.748Z,101412.44
2022-10-22T23:16:09.811Z,101410.00
2022-10-22T23:18:37.538Z,101399.19
2022-10-22T23:21:06.605Z,101407.41
2022-10-22T23:23:34.572Z,101402.88
2022-10-22T23:26:02.578Z,101406.69
2022-10-22T23:28:31.632Z,101400.44
2022-10-22T23:30:59.394Z,101399.38
2022-10-22T23:33:27.666Z,101400.56
2022-10-22T23:35:55.525Z,101404.38
2022-10-22T23:38:23.414Z,101406.69
2022-10-22T23:40:56.517Z,101408.81
2022-10-22T23:43:24.330Z,101403.66
2022-10-22T23:45:53.869Z,101411.09
2022-10-22T23:48:22.006Z,101406.81
2022-10-22T23:50:50.116Z,101391.47
2022-10-22T23:53:18.078Z,101381.38
2022-10-22T23:55:45.945Z,101371.31
2022-10-22T23:58:13.791Z,101386.03
